Time;durP1;ratioP1;P1;durP2;ratioP2;P2;SDS_P1;SDS_P2;PMS_P1;PMS_P2;Temp;Humidity;BMP_temperature;BMP_pressure;BME280_temperature;BME280_humidity;BME280_pressure;Samples;Min_cycle;Max_cycle;Signal;HPM_P1;HPM_P2
2022/10/16 00:01:21;;;;;;;1.25;0.30;;;11.80;99.90;;;;;;5050083;28;20021;-85
2022/10/16 00:03:47;;;;;;;0.90;0.25;;;11.80;99.90;;;;;;5051058;28;20170;-80
2022/10/16 00:06:15;;;;;;;1.42;0.22;;;11.90;99.90;;;;;;5033993;28;20028;-79
2022/10/16 00:08:41;;;;;;;1.95;0.30;;;11.80;99.90;;;;;;5050138;28;20048;-79
2022/10/16 00:11:26;;;;;;;1.35;0.40;;;11.80;99.90;;;;;;5050453;28;20027;-80
2022/10/16 00:13:55;;;;;;;0.75;0.25;;;11.90;99.90;;;;;;5066757;28;20048;-79
2022/10/16 00:16:21;;;;;;;0.82;0.30;;;11.90;99.90;;;;;;5067372;28;20117;-90
2022/10/16 00:18:47;;;;;;;2.55;0.30;;;11.90;99.90;;;;;;5032136;28;20068;-79
2022/10/16 00:21:31;;;;;;;0.93;0.30;;;11.90;99.90;;;;;;5049547;28;20070;-79
2022/10/16 00:24:00;;;;;;;1.90;0.30;;;11.80;99.90;;;;;;5067081;28;20028;-87
2022/10/16 00:26:27;;;;;;;1.63;0.30;;;11.80;99.90;;;;;;5055357;28;20035;-79
2022/10/16 00:28:53;;;;;;;1.10;0.22;;;11.80;99.90;;;;;;5068114;28;20028;-79
2022/10/16 00:31:21;;;;;;;0.98;0.35;;;11.80;99.90;;;;;;5066569;28;20460;-84
2022/10/16 00:33:47;;;;;;;1.42;0.30;;;11.80;99.90;;;;;;5067658;28;20476;-79
2022/10/16 00:36:15;;;;;;;1.13;0.30;;;11.90;99.90;;;;;;5068120;28;20051;-80
2022/10/16 00:38:41;;;;;;;1.77;0.30;;;11.80;99.90;;;;;;5065648;28;20028;-89
2022/10/16 00:41:10;;;;;;;1.15;0.30;;;11.80;99.90;;;;;;5049274;28;20476;-89
2022/10/16 00:43:54;;;;;;;1.30;0.30;;;11.80;99.90;;;;;;5067963;28;20472;-79
2022/10/16 00:46:31;;;;;;;2.63;0.40;;;11.80;99.90;;;;;;5029927;28;20033;-85
2022/10/16 00:49:10;;;;;;;1.70;0.40;;;11.80;99.90;;;;;;5067527;28;20043;-79
2022/10/16 00:51:41;;;;;;;1.38;0.40;;;11.80;99.90;;;;;;5049535;28;20040;-79
2022/10/16 00:54:15;;;;;;;1.13;0.40;;;11.80;99.90;;;;;;5066884;28;20027;-80
2022/10/16 00:56:42;;;;;;;1.63;0.50;;;11.80;99.90;;;;;;5032020;28;20029;-79
2022/10/16 00:59:16;;;;;;;1.60;0.40;;;11.90;99.90;;;;;;5066661;28;21048;-79
2022/10/16 01:01:42;;;;;;;1.30;0.50;;;11.90;99.90;;;;;;5050173;28;20034;-83
2022/10/16 01:04:07;;;;;;;2.25;0.50;;;11.90;99.90;;;;;;5065967;28;20103;-80
2022/10/16 01:06:57;;;;;;;1.83;0.40;;;11.90;99.90;;;;;;5067281;28;20070;-79
2022/10/16 01:09:28;;;;;;;1.10;0.38;;;11.80;99.90;;;;;;5049319;28;20060;-79
2022/10/16 01:12:12;;;;;;;1.42;0.47;;;11.90;99.90;;;;;;5065958;28;20047;-79
2022/10/16 01:14:48;;;;;;;1.67;0.40;;;11.90;99.90;;;;;;5032550;28;20059;-84
2022/10/16 01:17:33;;;;;;;1.92;0.50;;;11.80;99.90;;;;;;5065595;28;20024;-80
2022/10/16 01:20:22;;;;;;;0.88;0.40;;;11.80;99.90;;;;;;5033421;28;20031;-79
2022/10/16 01:23:03;;;;;;;1.77;0.40;;;11.80;99.90;;;;;;5065893;28;20040;-80
2022/10/16 01:26:00;;;;;;;1.20;0.40;;;11.80;99.90;;;;;;5066485;28;20472;-83
2022/10/16 01:29:10;;;;;;;1.25;0.30;;;11.80;99.90;;;;;;5046228;28;20060;-80
2022/10/16 01:31:40;;;;;;;0.63;0.30;;;11.80;99.90;;;;;;5008561;28;20044;-79
2022/10/16 01:34:13;;;;;;;1.00;0.30;;;11.70;99.90;;;;;;5064763;28;20033;-79
2022/10/16 01:36:45;;;;;;;1.38;0.30;;;11.70;99.90;;;;;;5048538;28;20374;-79
2022/10/16 01:39:11;;;;;;;0.98;0.30;;;11.80;99.90;;;;;;5047727;28;20113;-78
2022/10/16 01:41:43;;;;;;;1.45;0.40;;;11.70;99.90;;;;;;5049074;28;20041;-79
2022/10/16 01:44:21;;;;;;;1.40;0.30;;;11.70;99.90;;;;;;5032368;28;20449;-79
2022/10/16 01:46:50;;;;;;;1.48;0.40;;;11.70;99.90;;;;;;5064765;28;20041;-84
2022/10/16 01:49:18;;;;;;;1.73;0.40;;;11.70;99.90;;;;;;5067125;28;20044;-84
2022/10/16 01:51:47;;;;;;;1.08;0.47;;;11.80;99.90;;;;;;5049564;28;20027;-83
2022/10/16 01:54:14;;;;;;;1.23;0.40;;;11.80;99.90;;;;;;5066495;28;20075;-80
2022/10/16 01:56:41;;;;;;;1.05;0.40;;;11.90;99.90;;;;;;5048525;28;20036;-80
2022/10/16 01:59:12;;;;;;;1.90;0.50;;;11.90;99.90;;;;;;5065537;28;20029;-80
2022/10/16 02:01:41;;;;;;;0.88;0.40;;;11.90;99.90;;;;;;5067408;28;20024;-85
2022/10/16 02:04:40;;;;;;;1.10;0.40;;;11.90;99.90;;;;;;5064969;28;20031;-88
2022/10/16 02:07:06;;;;;;;2.03;0.40;;;11.90;99.90;;;;;;5049187;28;20066;-79
2022/10/16 02:09:34;;;;;;;1.05;0.38;;;11.90;99.90;;;;;;5048343;28;20369;-80
2022/10/16 02:12:06;;;;;;;1.20;0.40;;;11.90;99.90;;;;;;5048737;28;20036;-83
2022/10/16 02:14:32;;;;;;;1.13;0.35;;;11.90;99.90;;;;;;5048361;28;20029;-81
2022/10/16 02:16:58;;;;;;;1.20;0.40;;;11.90;99.90;;;;;;5067218;28;20020;-79
2022/10/16 02:19:24;;;;;;;1.10;0.40;;;11.90;99.90;;;;;;5048110;28;20399;-79
2022/10/16 02:21:59;;;;;;;0.85;0.30;;;11.90;99.90;;;;;;5066773;28;20032;-84
2022/10/16 02:24:51;;;;;;;1.60;0.43;;;11.90;99.90;;;;;;5066151;28;20107;-89
2022/10/16 02:27:46;;;;;;;1.58;0.40;;;12.00;99.90;;;;;;5054412;28;20052;-87
2022/10/16 02:30:14;;;;;;;2.30;0.30;;;11.90;99.90;;;;;;5064264;28;20063;-79
2022/10/16 02:32:44;;;;;;;1.75;0.40;;;11.90;99.90;;;;;;5065251;28;20029;-79
2022/10/16 02:35:10;;;;;;;;;;;11.90;99.90;;;;;;5048107;28;20028;-79
2022/10/16 02:37:38;;;;;;;0.80;0.30;;;12.00;99.90;;;;;;5048040;28;19913;-81
2022/10/16 02:40:05;;;;;;;3.22;0.50;;;12.00;99.90;;;;;;5035503;28;20024;-79
2022/10/16 02:42:39;;;;;;;0.98;0.40;;;12.10;99.90;;;;;;5052343;28;20039;-79
2022/10/16 02:45:08;;;;;;;1.35;0.40;;;12.10;99.90;;;;;;5050682;28;20028;-81
2022/10/16 02:47:33;;;;;;;0.90;0.30;;;12.10;99.90;;;;;;5070078;28;20072;-80
2022/10/16 02:49:59;;;;;;;0.85;0.30;;;12.10;99.90;;;;;;5036314;28;20500;-79
2022/10/16 02:52:25;;;;;;;1.80;0.50;;;12.10;99.90;;;;;;5052027;28;20039;-84
2022/10/16 02:54:51;;;;;;;1.60;0.40;;;12.10;99.90;;;;;;5070378;28;20071;-88
2022/10/16 02:57:17;;;;;;;0.90;0.30;;;12.00;99.90;;;;;;5051644;28;20086;-80
2022/10/16 02:59:43;;;;;;;1.90;0.40;;;12.00;99.90;;;;;;5070217;28;20028;-80
2022/10/16 03:02:09;;;;;;;1.73;0.40;;;12.00;99.90;;;;;;5069866;28;20012;-79
2022/10/16 03:04:34;;;;;;;1.20;0.30;;;12.00;99.90;;;;;;5069998;28;20458;-79
2022/10/16 03:07:00;;;;;;;1.83;0.30;;;12.00;99.90;;;;;;5032072;28;20020;-78
2022/10/16 03:09:26;;;;;;;1.65;0.30;;;12.00;99.90;;;;;;5052050;28;20408;-84
2022/10/16 03:11:52;;;;;;;1.25;0.30;;;11.90;99.90;;;;;;5069135;28;20016;-79
2022/10/16 03:14:17;;;;;;;0.95;0.40;;;11.90;99.90;;;;;;5069346;28;20024;-80
2022/10/16 03:16:43;;;;;;;1.92;0.50;;;11.90;99.90;;;;;;5052148;28;20032;-80
2022/10/16 03:19:09;;;;;;;0.88;0.30;;;12.00;99.90;;;;;;5051091;28;20016;-88
2022/10/16 03:21:34;;;;;;;1.73;0.40;;;11.90;99.90;;;;;;5035380;28;20158;-79
2022/10/16 03:24:00;;;;;;;0.68;0.30;;;11.90;99.90;;;;;;5068204;28;20031;-80
2022/10/16 03:26:26;;;;;;;0.80;0.30;;;11.90;99.90;;;;;;5048194;28;20037;-79
2022/10/16 03:28:51;;;;;;;0.80;0.30;;;11.90;99.90;;;;;;5051181;28;20043;-80
2022/10/16 03:31:17;;;;;;;1.20;0.40;;;11.90;99.90;;;;;;5051385;28;20032;-79
2022/10/16 03:33:43;;;;;;;1.58;0.50;;;11.90;99.90;;;;;;5050563;28;20029;-80
2022/10/16 03:36:08;;;;;;;1.30;0.47;;;11.90;99.90;;;;;;5050010;28;20120;-85
2022/10/16 03:38:34;;;;;;;2.03;0.70;;;11.80;99.90;;;;;;5050836;28;20120;-79
2022/10/16 03:40:59;;;;;;;1.90;0.90;;;11.80;99.90;;;;;;5035298;28;20115;-79
2022/10/16 03:43:25;;;;;;;1.20;0.50;;;11.80;99.90;;;;;;5066732;28;20488;-79
2022/10/16 03:45:51;;;;;;;1.58;0.70;;;11.70;99.90;;;;;;5051557;28;20486;-84
2022/10/16 03:48:18;;;;;;;1.63;0.70;;;11.80;99.90;;;;;;5051156;28;20051;-86
2022/10/16 03:50:44;;;;;;;1.67;0.70;;;11.80;99.90;;;;;;5048334;28;20365;-81
2022/10/16 03:53:09;;;;;;;1.65;0.68;;;11.80;99.90;;;;;;5048800;28;20031;-79
2022/10/16 03:55:35;;;;;;;2.25;0.60;;;11.70;99.90;;;;;;5050976;28;20426;-79
2022/10/16 03:58:01;;;;;;;2.47;0.60;;;11.70;99.90;;;;;;5069034;28;20025;-89
2022/10/16 04:00:27;;;;;;;1.92;0.73;;;11.70;99.90;;;;;;5033809;28;20043;-81
2022/10/16 04:02:53;;;;;;;1.00;0.50;;;11.70;99.90;;;;;;5050849;28;20025;-80
2022/10/16 04:05:18;;;;;;;1.08;0.50;;;11.70;99.90;;;;;;5066234;28;20492;-78
2022/10/16 04:07:44;;;;;;;0.93;0.32;;;11.70;99.90;;;;;;5050408;28;20033;-87
2022/10/16 04:10:10;;;;;;;0.95;0.30;;;11.70;99.90;;;;;;5050175;28;20056;-79
2022/10/16 04:12:36;;;;;;;0.70;0.30;;;11.70;99.90;;;;;;5048342;28;20055;-79
2022/10/16 04:15:02;;;;;;;0.90;0.30;;;11.70;99.90;;;;;;5050387;28;20032;-80
2022/10/16 04:17:27;;;;;;;1.08;0.40;;;11.60;99.90;;;;;;5066865;28;20025;-79
2022/10/16 04:19:53;;;;;;;1.00;0.40;;;11.70;99.90;;;;;;5032586;28;20127;-88
2022/10/16 04:22:19;;;;;;;0.90;0.40;;;11.70;99.90;;;;;;5049950;28;20508;-85
2022/10/16 04:24:44;;;;;;;1.05;0.40;;;11.70;99.90;;;;;;5050862;28;20028;-83
2022/10/16 04:27:10;;;;;;;1.88;0.40;;;11.70;99.90;;;;;;5032963;28;20017;-78
2022/10/16 04:29:35;;;;;;;1.15;0.45;;;11.70;99.90;;;;;;5047354;28;20029;-82
2022/10/16 04:32:01;;;;;;;1.48;0.65;;;11.70;99.90;;;;;;5047507;28;20067;-79
2022/10/16 04:34:27;;;;;;;1.10;0.50;;;11.80;99.90;;;;;;5032735;28;20484;-79
2022/10/16 04:36:52;;;;;;;1.00;0.40;;;11.70;99.90;;;;;;5068002;28;20016;-79
2022/10/16 04:39:18;;;;;;;2.08;0.77;;;11.70;99.90;;;;;;5033242;28;20545;-80
2022/10/16 04:41:44;;;;;;;2.17;1.10;;;11.70;99.90;;;;;;5050794;28;20138;-79
2022/10/16 04:44:09;;;;;;;2.15;0.70;;;11.80;99.90;;;;;;5049624;28;20024;-78
2022/10/16 04:46:35;;;;;;;2.38;0.80;;;11.70;99.90;;;;;;5049433;28;20121;-82
2022/10/16 04:49:01;;;;;;;2.78;0.70;;;11.60;99.90;;;;;;5049314;28;20044;-81
2022/10/16 04:51:27;;;;;;;1.33;0.57;;;11.70;99.90;;;;;;5050198;28;20044;-79
2022/10/16 04:53:54;;;;;;;0.90;0.50;;;11.70;99.90;;;;;;5050243;28;20024;-88
2022/10/16 04:56:21;;;;;;;1.05;0.30;;;11.60;99.90;;;;;;5049229;28;20446;-78
2022/10/16 04:58:47;;;;;;;0.90;0.40;;;11.70;99.90;;;;;;5066203;28;20048;-79
2022/10/16 05:01:13;;;;;;;0.80;0.28;;;11.60;99.90;;;;;;5049875;28;20488;-78
2022/10/16 05:03:38;;;;;;;1.25;0.30;;;11.60;99.90;;;;;;5033174;28;20025;-78
2022/10/16 05:06:08;;;;;;;1.05;0.40;;;11.70;99.90;;;;;;5049576;28;20017;-78
2022/10/16 05:08:33;;;;;;;1.88;0.30;;;11.60;99.90;;;;;;5048829;28;20063;-78
2022/10/16 05:10:59;;;;;;;1.05;0.30;;;11.50;99.90;;;;;;5067732;28;20059;-78
2022/10/16 05:13:25;;;;;;;1.05;0.30;;;11.50;99.90;;;;;;5048756;28;20473;-78
2022/10/16 05:15:51;;;;;;;0.60;0.30;;;11.40;99.90;;;;;;5067774;28;20074;-78
2022/10/16 05:18:17;;;;;;;0.60;0.20;;;11.40;99.90;;;;;;5032421;28;20416;-79
2022/10/16 05:20:42;;;;;;;0.90;0.28;;;11.40;99.90;;;;;;5049752;28;20028;-78
2022/10/16 05:23:10;;;;;;;1.00;0.28;;;11.40;99.90;;;;;;5049027;28;20028;-77
2022/10/16 05:25:36;;;;;;;0.70;0.22;;;11.40;99.90;;;;;;5050467;28;20409;-78
2022/10/16 05:28:02;;;;;;;0.68;0.20;;;11.40;99.90;;;;;;5049160;28;20029;-78
2022/10/16 05:30:27;;;;;;;0.50;0.20;;;11.40;99.90;;;;;;5067546;28;20493;-79
2022/10/16 05:32:53;;;;;;;0.90;0.30;;;11.50;99.90;;;;;;5032441;28;20032;-79
2022/10/16 05:35:19;;;;;;;1.05;0.30;;;11.40;99.90;;;;;;5067169;28;20033;-78
2022/10/16 05:37:46;;;;;;;4.35;0.28;;;11.40;99.90;;;;;;5065960;28;20029;-78
2022/10/16 05:40:12;;;;;;;0.75;0.20;;;11.40;99.90;;;;;;5066810;28;20108;-79
2022/10/16 05:42:39;;;;;;;0.43;0.10;;;11.40;99.90;;;;;;5033308;28;20496;-78
2022/10/16 05:45:06;;;;;;;1.25;0.20;;;11.30;99.90;;;;;;5049192;28;20103;-78
2022/10/16 05:47:32;;;;;;;2.03;0.20;;;11.30;99.90;;;;;;5048244;28;20427;-78
2022/10/16 05:49:57;;;;;;;0.73;0.15;;;11.30;99.90;;;;;;5048604;28;20070;-78
2022/10/16 05:52:23;;;;;;;0.40;0.20;;;11.30;99.90;;;;;;5049011;28;20071;-79
2022/10/16 05:54:49;;;;;;;1.35;0.20;;;11.30;99.90;;;;;;5031379;28;20376;-78
2022/10/16 05:57:16;;;;;;;0.65;0.20;;;11.30;99.90;;;;;;5048841;28;20048;-79
2022/10/16 05:59:42;;;;;;;0.55;0.20;;;11.10;99.90;;;;;;5049043;28;20028;-79
2022/10/16 06:02:12;;;;;;;0.40;0.10;;;11.10;99.90;;;;;;5032268;28;20507;-78
2022/10/16 06:04:38;;;;;;;1.73;0.20;;;11.10;99.90;;;;;;5066656;28;20025;-79
2022/10/16 06:07:04;;;;;;;0.50;0.20;;;11.10;99.90;;;;;;5048664;28;20373;-79
2022/10/16 06:09:29;;;;;;;0.70;0.10;;;11.20;99.90;;;;;;5063873;28;20499;-79
2022/10/16 06:11:55;;;;;;;1.23;0.20;;;11.10;99.90;;;;;;5066018;28;20145;-78
2022/10/16 06:14:21;;;;;;;0.68;0.20;;;11.10;99.90;;;;;;5051413;28;20066;-79
2022/10/16 06:16:46;;;;;;;1.02;0.20;;;11.10;99.90;;;;;;5068917;28;20091;-78
2022/10/16 06:19:12;;;;;;;3.58;0.20;;;11.10;99.90;;;;;;5051731;28;20032;-80
2022/10/16 06:21:38;;;;;;;0.50;0.20;;;11.10;99.90;;;;;;5051370;28;20017;-81
2022/10/16 06:24:04;;;;;;;0.80;0.30;;;11.10;99.90;;;;;;5051399;28;20219;-77
2022/10/16 06:26:31;;;;;;;0.93;0.35;;;11.10;99.90;;;;;;5069498;28;20050;-78
2022/10/16 06:28:58;;;;;;;1.40;0.30;;;11.20;99.90;;;;;;5052562;28;20041;-81
2022/10/16 06:31:30;;;;;;;0.70;0.20;;;11.10;99.90;;;;;;5033816;28;20028;-79
2022/10/16 06:33:57;;;;;;;0.80;0.40;;;11.10;99.90;;;;;;5052255;28;20039;-81
2022/10/16 06:36:24;;;;;;;1.02;0.30;;;11.20;99.90;;;;;;5049822;28;20032;-79
2022/10/16 06:38:49;;;;;;;0.85;0.20;;;11.30;99.90;;;;;;5051605;28;20090;-80
2022/10/16 06:41:18;;;;;;;1.13;0.20;;;11.50;99.90;;;;;;5051453;28;20468;-80
2022/10/16 06:43:45;;;;;;;2.35;0.30;;;11.50;99.90;;;;;;5069060;28;20068;-86
2022/10/16 06:46:12;;;;;;;0.90;0.20;;;11.50;99.90;;;;;;5051781;28;20369;-79
2022/10/16 06:48:38;;;;;;;1.05;0.20;;;11.60;99.90;;;;;;5052198;28;20037;-87
2022/10/16 06:51:13;;;;;;;0.82;0.30;;;11.70;99.90;;;;;;5070021;28;20156;-85
2022/10/16 06:53:41;;;;;;;0.65;0.20;;;11.90;99.90;;;;;;5068070;28;20098;-83
2022/10/16 06:56:11;;;;;;;0.60;0.20;;;11.90;99.90;;;;;;5052166;28;20029;-84
2022/10/16 06:58:38;;;;;;;1.60;0.40;;;12.10;99.90;;;;;;5051704;28;20409;-80
2022/10/16 07:01:04;;;;;;;1.67;0.40;;;12.10;99.90;;;;;;5052010;28;20132;-90
2022/10/16 07:03:30;;;;;;;1.50;0.40;;;12.20;99.90;;;;;;5069122;28;20028;-84
2022/10/16 07:05:56;;;;;;;0.70;0.28;;;12.20;99.90;;;;;;5030674;28;20082;-87
2022/10/16 07:08:22;;;;;;;0.65;0.30;;;12.20;99.90;;;;;;5033319;28;20132;-87
2022/10/16 07:10:47;;;;;;;2.38;0.45;;;12.40;99.90;;;;;;5034031;28;21157;-83
2022/10/16 07:13:14;;;;;;;1.23;0.47;;;12.50;99.90;;;;;;5042243;28;20072;-80
2022/10/16 07:15:40;;;;;;;1.83;0.50;;;12.60;99.90;;;;;;5019298;28;20045;-79
2022/10/16 07:18:06;;;;;;;1.45;0.50;;;12.70;99.90;;;;;;5045010;28;20047;-85
2022/10/16 07:20:32;;;;;;;1.25;0.60;;;12.70;99.90;;;;;;5014607;28;20033;-86
2022/10/16 07:22:58;;;;;;;0.60;0.20;;;12.80;99.90;;;;;;5032623;28;20152;-80
2022/10/16 07:25:24;;;;;;;1.88;0.50;;;12.80;99.90;;;;;;5038154;28;20037;-82
2022/10/16 07:27:49;;;;;;;2.25;0.28;;;12.90;99.90;;;;;;5011638;28;20464;-81
2022/10/16 07:30:17;;;;;;;1.35;0.30;;;12.90;99.90;;;;;;5041209;28;20028;-82
2022/10/16 07:32:42;;;;;;;1.92;0.30;;;12.90;99.90;;;;;;5036625;28;20477;-80
2022/10/16 07:35:08;;;;;;;1.08;0.30;;;13.00;99.90;;;;;;5068831;28;20392;-81
2022/10/16 07:37:34;;;;;;;1.77;0.30;;;13.00;99.90;;;;;;5031491;28;20090;-80
2022/10/16 07:39:59;;;;;;;1.80;0.20;;;13.00;99.90;;;;;;5066750;28;20376;-80
2022/10/16 07:42:26;;;;;;;2.22;0.40;;;13.00;99.90;;;;;;5050133;28;20154;-84
2022/10/16 07:44:52;;;;;;;1.35;0.30;;;13.00;99.90;;;;;;5051397;28;20433;-83
2022/10/16 07:47:18;;;;;;;1.85;0.40;;;13.10;99.90;;;;;;5068246;28;20028;-80
2022/10/16 07:49:43;;;;;;;0.80;0.30;;;13.20;99.90;;;;;;5034072;28;20081;-82
2022/10/16 07:52:09;;;;;;;1.10;0.50;;;13.10;99.90;;;;;;5034214;28;20075;-84
2022/10/16 07:54:34;;;;;;;1.45;0.40;;;13.20;99.90;;;;;;5068448;28;20020;-80
2022/10/16 07:57:00;;;;;;;1.67;0.40;;;13.20;99.90;;;;;;5049520;28;20031;-83
2022/10/16 07:59:26;;;;;;;1.15;0.30;;;13.10;99.90;;;;;;5048734;28;20037;-84
2022/10/16 08:01:51;;;;;;;0.90;0.40;;;13.10;99.90;;;;;;5068903;28;20491;-83
2022/10/16 08:04:17;;;;;;;1.48;0.55;;;13.10;99.90;;;;;;5046878;28;20021;-84
2022/10/16 08:06:43;;;;;;;1.27;0.43;;;13.30;99.90;;;;;;5032835;28;20062;-81
2022/10/16 08:09:10;;;;;;;1.30;0.40;;;13.50;99.90;;;;;;5046124;28;20480;-88
2022/10/16 08:11:35;;;;;;;1.23;0.40;;;13.70;99.90;;;;;;5064447;28;20495;-84
2022/10/16 08:14:01;;;;;;;1.90;0.30;;;13.80;99.90;;;;;;5065529;28;20038;-84
2022/10/16 08:16:27;;;;;;;0.73;0.30;;;14.00;99.90;;;;;;5031316;28;20058;-85
2022/10/16 08:18:53;;;;;;;1.55;0.40;;;14.00;99.90;;;;;;5047270;28;20025;-87
2022/10/16 08:21:22;;;;;;;0.93;0.40;;;14.10;99.90;;;;;;5062349;28;20026;-81
2022/10/16 08:23:49;;;;;;;1.48;0.40;;;14.20;99.90;;;;;;5046914;28;20020;-81
2022/10/16 08:26:14;;;;;;;1.55;0.52;;;14.20;99.90;;;;;;5046636;28;20787;-86
2022/10/16 08:28:40;;;;;;;1.70;0.50;;;14.40;99.90;;;;;;5029495;28;20064;-82
2022/10/16 08:31:11;;;;;;;2.10;0.40;;;14.40;99.90;;;;;;5046506;28;20103;-83
2022/10/16 08:33:38;;;;;;;1.20;0.30;;;14.50;99.90;;;;;;5046982;28;20096;-84
2022/10/16 08:36:05;;;;;;;1.17;0.40;;;14.70;99.90;;;;;;5030620;28;20032;-87
2022/10/16 08:38:32;;;;;;;2.83;0.52;;;14.80;99.90;;;;;;5029903;28;20468;-83
2022/10/16 08:41:08;;;;;;;1.52;0.40;;;14.80;99.90;;;;;;5033342;28;20496;-85
2022/10/16 08:44:12;;;;;;;2.35;0.45;;;14.70;99.90;;;;;;5045959;28;20361;-82
2022/10/16 08:47:17;;;;;;;1.55;0.40;;;14.70;99.90;;;;;;5044791;28;20024;-84
2022/10/16 08:49:58;;;;;;;1.60;0.40;;;14.90;99.90;;;;;;5028762;28;20047;-87
2022/10/16 08:52:33;;;;;;;3.45;0.50;;;15.10;99.90;;;;;;5046041;28;20465;-87
2022/10/16 08:54:59;;;;;;;2.83;0.40;;;15.20;99.90;;;;;;5029879;28;20032;-82
2022/10/16 08:57:29;;;;;;;2.83;0.35;;;15.30;99.90;;;;;;5065032;28;20032;-87
2022/10/16 09:00:00;;;;;;;2.88;0.68;;;15.20;99.90;;;;;;5046902;28;20027;-81
2022/10/16 09:02:32;;;;;;;1.73;0.30;;;15.30;99.90;;;;;;5046189;28;20040;-84
2022/10/16 09:05:20;;;;;;;1.35;0.30;;;15.40;99.90;;;;;;5053148;28;20028;-82
2022/10/16 09:08:30;;;;;;;1.58;0.40;;;15.60;99.90;;;;;;5046956;28;20029;-83
2022/10/16 09:11:04;;;;;;;2.20;0.30;;;15.70;99.90;;;;;;5029718;28;20314;-85
2022/10/16 09:13:49;;;;;;;4.47;0.55;;;15.60;99.90;;;;;;5045129;28;20631;-84
2022/10/16 09:16:22;;;;;;;2.92;0.32;;;15.70;99.90;;;;;;5046217;28;20068;-81
2022/10/16 09:19:00;;;;;;;3.78;0.40;;;15.70;99.90;;;;;;5023411;28;20123;-81
2022/10/16 09:21:30;;;;;;;1.23;0.30;;;15.70;99.90;;;;;;5045567;28;20051;-82
2022/10/16 09:24:29;;;;;;;1.83;0.30;;;15.80;99.90;;;;;;5061003;28;20020;-83
2022/10/16 09:26:55;;;;;;;1.50;0.35;;;15.90;99.90;;;;;;5024623;28;20055;-81
2022/10/16 09:29:23;;;;;;;4.05;0.50;;;15.90;99.90;;;;;;5046089;28;20036;-83
2022/10/16 09:31:49;;;;;;;4.18;0.32;;;15.90;99.90;;;;;;5064879;28;20104;-82
2022/10/16 09:34:36;;;;;;;3.85;0.30;;;16.00;99.90;;;;;;5046096;28;20120;-81
2022/10/16 09:37:11;;;;;;;2.08;0.30;;;16.10;99.90;;;;;;5062457;28;20124;-81
2022/10/16 09:39:49;;;;;;;2.03;0.30;;;15.90;99.90;;;;;;5063230;28;20021;-84
2022/10/16 09:42:20;;;;;;;4.07;0.50;;;16.00;99.90;;;;;;5045518;28;20028;-82
2022/10/16 09:44:50;;;;;;;2.80;0.50;;;16.00;99.90;;;;;;5063165;28;20043;-85
2022/10/16 09:47:20;;;;;;;2.03;0.20;;;16.10;99.90;;;;;;5063903;28;20508;-83
2022/10/16 09:50:02;;;;;;;4.78;0.30;;;16.40;99.90;;;;;;5050327;28;20035;-86
2022/10/16 09:52:29;;;;;;;5.65;0.43;;;16.50;99.90;;;;;;5049041;28;20025;-87
2022/10/16 09:54:57;;;;;;;3.92;0.40;;;16.60;99.90;;;;;;5050311;28;20035;-81
2022/10/16 09:57:25;;;;;;;1.50;0.20;;;16.50;99.90;;;;;;5033199;28;20414;-85
2022/10/16 09:59:55;;;;;;;4.22;0.40;;;16.70;99.90;;;;;;5065594;28;20473;-85
2022/10/16 10:02:35;;;;;;;3.40;0.30;;;16.60;99.90;;;;;;5066462;28;20048;-81
2022/10/16 10:05:03;;;;;;;3.65;0.35;;;16.70;99.90;;;;;;5049139;28;20446;-80
2022/10/16 10:07:35;;;;;;;5.70;0.60;;;16.90;99.90;;;;;;5048265;28;20429;-81
2022/10/16 10:10:06;;;;;;;3.15;0.38;;;17.10;99.90;;;;;;5047995;28;20043;-89
2022/10/16 10:12:34;;;;;;;4.95;0.32;;;16.90;99.90;;;;;;5048696;28;20040;-86
2022/10/16 10:15:11;;;;;;;4.53;0.47;;;16.70;99.90;;;;;;5065888;28;20089;-82
2022/10/16 10:17:47;;;;;;;3.40;0.20;;;16.90;99.90;;;;;;5049753;28;20032;-84
2022/10/16 10:20:28;;;;;;;2.92;0.28;;;17.10;99.90;;;;;;5025517;28;20067;-80
2022/10/16 10:22:55;;;;;;;4.50;0.30;;;17.20;99.90;;;;;;5048590;28;20054;-82
2022/10/16 10:25:45;;;;;;;4.22;0.40;;;17.10;99.90;;;;;;5049416;28;20490;-87
2022/10/16 10:28:17;;;;;;;3.13;0.40;;;17.10;99.90;;;;;;5048995;28;20055;-87
2022/10/16 10:31:04;;;;;;;3.78;0.30;;;17.40;99.90;;;;;;5048443;28;20438;-83
2022/10/16 10:34:09;;;;;;;5.03;0.50;;;17.30;99.90;;;;;;5048679;28;20040;-85
2022/10/16 10:36:40;;;;;;;4.15;0.30;;;17.40;99.90;;;;;;5048704;28;20033;-83
2022/10/16 10:39:14;;;;;;;3.03;0.40;;;17.10;99.90;;;;;;5049418;28;20060;-83
2022/10/16 10:41:55;;;;;;;2.33;0.20;;;17.40;99.90;;;;;;5049199;28;20028;-82
2022/10/16 10:44:21;;;;;;;4.45;0.40;;;17.80;99.90;;;;;;5031898;28;20044;-83
2022/10/16 10:47:05;;;;;;;5.32;0.63;;;17.70;99.90;;;;;;5067111;28;20073;-82
2022/10/16 10:50:12;;;;;;;4.55;0.60;;;17.40;99.90;;;;;;5047594;28;20048;-85
2022/10/16 10:53:00;;;;;;;3.22;0.30;;;17.40;99.90;;;;;;5056652;28;20068;-84
2022/10/16 10:56:02;;;;;;;2.42;0.20;;;17.40;99.90;;;;;;5047412;28;20158;-88
2022/10/16 10:58:46;;;;;;;3.17;0.20;;;17.60;99.90;;;;;;5049500;28;20070;-79
2022/10/16 11:01:13;;;;;;;3.13;0.40;;;17.60;99.90;;;;;;5065659;28;20029;-84
2022/10/16 11:04:14;;;;;;;3.53;0.30;;;17.30;99.90;;;;;;5066517;28;20040;-92
2022/10/16 11:06:57;;;;;;;2.88;0.28;;;17.80;99.90;;;;;;5048644;28;20469;-89
2022/10/16 11:09:33;;;;;;;2.83;0.25;;;17.90;99.90;;;;;;5047006;28;20090;-81
2022/10/16 11:12:14;;;;;;;5.38;0.30;;;18.00;99.90;;;;;;5047993;28;20043;-80
2022/10/16 11:14:55;;;;;;;3.60;0.35;;;17.70;99.90;;;;;;5066564;28;20031;-80
2022/10/16 11:17:59;;;;;;;3.03;0.30;;;17.90;99.90;;;;;;5066056;28;20027;-81
2022/10/16 11:20:57;;;;;;;3.30;0.30;;;17.90;99.90;;;;;;5027581;28;20025;-81
2022/10/16 11:23:28;;;;;;;2.65;0.20;;;17.90;99.90;;;;;;5030411;28;20136;-81
2022/10/16 11:25:59;;;;;;;2.90;0.30;;;18.00;99.90;;;;;;5031263;28;20089;-84
2022/10/16 11:28:44;;;;;;;6.45;0.40;;;18.10;99.90;;;;;;5047944;28;20044;-82
2022/10/16 11:31:35;;;;;;;3.10;0.60;;;18.30;99.90;;;;;;5047092;28;20119;-81
2022/10/16 11:34:06;;;;;;;7.95;0.40;;;18.10;99.90;;;;;;5048587;28;20119;-81
2022/10/16 11:36:40;;;;;;;5.75;0.30;;;17.90;99.90;;;;;;5047916;28;20481;-81
2022/10/16 11:39:18;;;;;;;4.22;0.40;;;18.00;99.90;;;;;;5031815;28;20125;-82
2022/10/16 11:42:07;;;;;;;2.28;0.28;;;18.00;99.90;;;;;;5065627;28;20086;-83
2022/10/16 11:44:48;;;;;;;3.80;0.38;;;18.00;99.90;;;;;;5064108;28;20040;-83
2022/10/16 11:47:22;;;;;;;5.38;0.40;;;18.00;99.90;;;;;;5065784;28;20021;-87
2022/10/16 11:49:51;;;;;;;2.30;0.20;;;18.00;99.90;;;;;;5063750;28;20028;-80
2022/10/16 11:52:30;;;;;;;4.77;0.30;;;18.10;99.90;;;;;;5047399;28;20031;-87
2022/10/16 11:55:14;;;;;;;6.47;0.60;;;17.70;99.90;;;;;;5063755;28;20291;-88
2022/10/16 11:57:53;;;;;;;4.43;0.40;;;17.60;99.90;;;;;;5026180;28;20028;-88
2022/10/16 12:00:37;;;;;;;5.38;0.40;;;17.80;99.90;;;;;;5047736;28;20384;-90
2022/10/16 12:03:14;;;;;;;4.55;0.40;;;17.80;99.90;;;;;;5047215;28;20029;-86
2022/10/16 12:05:45;;;;;;;2.72;0.20;;;18.10;99.90;;;;;;5064160;28;20021;-89
2022/10/16 12:08:13;;;;;;;4.80;0.30;;;18.20;99.90;;;;;;5035357;28;20033;-89
2022/10/16 12:10:42;;;;;;;4.88;0.30;;;18.20;99.90;;;;;;5046154;28;20067;-84
2022/10/16 12:13:33;;;;;;;4.57;0.30;;;18.20;99.90;;;;;;5046456;28;20507;-79
2022/10/16 12:16:11;;;;;;;4.70;0.40;;;18.30;99.90;;;;;;5046388;28;20472;-82
2022/10/16 12:18:38;;;;;;;3.85;0.30;;;18.00;99.90;;;;;;5063194;28;20028;-80
2022/10/16 12:21:05;;;;;;;2.25;0.20;;;18.10;99.90;;;;;;5033394;28;20502;-81
2022/10/16 12:23:33;;;;;;;3.40;0.30;;;18.40;99.90;;;;;;5064250;28;20103;-86
2022/10/16 12:26:00;;;;;;;4.38;0.25;;;18.30;99.90;;;;;;5047195;28;20039;-79
2022/10/16 12:28:34;;;;;;;4.30;0.30;;;18.10;99.90;;;;;;5034696;28;20063;-84
2022/10/16 12:31:09;;;;;;;3.28;0.20;;;18.40;99.90;;;;;;5063316;28;20111;-83
2022/10/16 12:33:41;;;;;;;5.80;0.30;;;18.40;99.90;;;;;;5045949;28;20036;-89
2022/10/16 12:36:15;;;;;;;8.90;0.40;;;18.20;99.90;;;;;;5046832;28;20028;-79
2022/10/16 12:38:52;;;;;;;2.25;0.30;;;18.00;99.90;;;;;;5064023;28;20043;-80
2022/10/16 12:41:32;;;;;;;5.25;0.30;;;18.10;99.90;;;;;;5062405;28;20031;-79
2022/10/16 12:44:01;;;;;;;4.25;0.30;;;18.00;99.90;;;;;;5063493;28;20436;-78
2022/10/16 12:46:29;;;;;;;3.65;0.40;;;17.80;99.90;;;;;;5062674;28;20512;-81
2022/10/16 12:49:38;;;;;;;2.80;0.30;;;18.10;99.90;;;;;;5029959;28;20053;-84
2022/10/16 12:52:04;;;;;;;3.28;0.20;;;18.30;99.90;;;;;;5055148;28;20090;-90
2022/10/16 12:54:35;;;;;;;2.58;0.30;;;18.40;99.90;;;;;;5064521;28;20487;-79
2022/10/16 12:57:29;;;;;;;4.20;0.40;;;18.40;99.90;;;;;;5046243;28;20032;-80
2022/10/16 13:00:15;;;;;;;5.85;0.45;;;18.40;99.90;;;;;;5064101;28;20057;-80
2022/10/16 13:02:56;;;;;;;6.55;0.30;;;18.40;99.90;;;;;;5062471;28;20028;-92
2022/10/16 13:05:40;;;;;;;4.13;0.20;;;18.10;99.90;;;;;;5045790;28;20043;-79
2022/10/16 13:08:21;;;;;;;6.43;0.57;;;18.00;99.90;;;;;;5063616;28;20250;-85
2022/10/16 13:11:03;;;;;;;7.20;0.47;;;18.00;99.90;;;;;;5062650;28;20040;-86